Impacts TAF Board INFO
FOR SITUATIONAL AWARENESS. NOT TO BE USED FOR FLIGHT PLANNING PURPOSES.
IDs:

KSTL - St Louis/Lambert Int, MO, US

Issued at 0530 UTC 19 Jan 2018
Updated at 0533 UTC 19 Jan 2018
Potential Impact None Slight Moderate High
Time<<20/06Z 20/07Z 20/08Z 20/09Z 20/10Z 20/11Z 20/12Z 20/13Z 20/14Z 20/15Z 20/16Z 20/17Z 20/18Z
Type PRVL PRVL PRVL PRVL PRVL PRVL
VIS >6 >6 >6 >6 >6 >6
CIG 250 250 250 250 250 250
Cover BKN BKN BKN BKN BKN BKN
FltCat VFR VFR VFR VFR VFR VFR
WX -- -- -- -- -- --
WDir 190 190 190 190 190 190
WSpd 12 12 12 12 12 12
WGst -- -- -- -- -- --

Raw TAF
KSTL 190530Z 1906/2012 22010KT P6SM BKN250
  FM191500 19012KT P6SM BKN250


METAR Board
Radar Display
Forecast Discussion

FOR SITUATIONAL AWARENESS. NOT TO BE USED FOR FLIGHT PLANNING PURPOSES.